yandy.com alexa rank chart, yandy.com alexa rank daily changes

yandy.com alexa rank chart, yandy.com alexa rank daily changes

yandy.com
Actual rank:
40 627

RANK HISTORY

Date Rank Diff
2018/04/22 40 627 +10 241
2018/04/21 30 386 -9 939
2018/04/20 40 325 -2 461
2018/04/19 42 786 +11 499
2018/04/18 31 287 +2 523
2018/04/17 28 764 +1 048
2018/04/16 27 716 -13 912
2018/04/15 41 628 +9 291
2018/04/14 32 337 -11 973
2018/04/13 44 310 +17 148
2018/04/12 27 162 -2 297
2018/04/11 29 459 +3 087
2018/04/10 26 372 -8 782
2018/04/09 35 154 +838
2018/04/08 34 316 +2 268
2018/04/07 32 048 +617
2018/04/06 31 431 -2 182
2018/04/05 33 613 -5 742
2018/04/04 39 355 +14 935
2018/04/03 24 420 -4 406
2018/04/02 28 826 -6 055
2018/04/01 34 881 -742
2018/03/31 35 623 +3 974
2018/03/30 31 649 -5 034
2018/03/29 36 683 +10 631
2018/03/28 26 052 +533
2018/03/27 25 519 +2 531
2018/03/26 22 988 -15 369
2018/03/25 38 357 +445
2018/03/24 37 912 +9 051
2018/03/23 28 861 +774
2018/03/22 28 087 +2 160
2018/03/21 25 927 +1 136
2018/03/20 24 791 -11 903
2018/03/19 36 694 +5 673
2018/03/18 31 021 -7 108
2018/03/17 38 129 -279
2018/03/16 38 408 +7 266
2018/03/15 31 142 +254
2018/03/14 30 888 -8 514
2018/03/13 39 402 +7 113
2018/03/12 32 289 -5 248
2018/03/11 37 537 +8 930
2018/03/10 28 607 -5 009
2018/03/09 33 616 +8 933
2018/03/08 24 683 -8 673
2018/03/07 33 356 +734
2018/03/06 32 622 +9 758
2018/03/05 22 864 -8 369
2018/03/04 31 233 -554
2018/03/03 31 787 -9 624
2018/03/02 41 411 +9 198
2018/03/01 32 213 +1 468
2018/02/28 30 745 +12 722
2018/02/27 18 023 -24 204
2018/02/26 42 227 +11 243
2018/02/25 30 984 -8 078
2018/02/24 39 062 +8 849
2018/02/23 30 213 -2 040
2018/02/22 32 253 +4 528
2018/02/21 27 725

WIDGET FOR YOUR SITE

DOMAINS WITH THE NEAREST RANK

Domain Rank
gfi.com 40 622
stateofobesity.org 40 623
tynker.com 40 624
paribu.com 40 625
flatex.de 40 626
yandy.com 40 627
pai.pt 40 628
parsiteb.com 40 629
fabo.com 40 630
chinadegrees.cn 40 631
instant-ltc.eu 40 632

DOMAINS WITH THE NEAREST RANK BY TLD .com

Domain Rank
aicai.com 40 617
lifelock.com 40 619
gfi.com 40 622
tynker.com 40 624
paribu.com 40 625
yandy.com 40 627
parsiteb.com 40 629
fabo.com 40 630
mspoweruser.com 40 634
mzcpunjab.com 40 635
humankinetics.com 40 636